createdAt,value
2023-02-03T00:02:23.011Z,36.70
2023-02-03T00:04:50.734Z,42.90
2023-02-03T00:07:18.251Z,38.00
2023-02-03T00:09:46.451Z,35.50
2023-02-03T00:12:14.403Z,41.20
2023-02-03T00:14:45.607Z,40.70
2023-02-03T00:17:14.905Z,35.90
2023-02-03T00:19:42.828Z,43.30
2023-02-03T00:22:10.369Z,36.80
2023-02-03T00:24:38.394Z,38.00
2023-02-03T00:27:06.779Z,39.00
2023-02-03T00:29:34.513Z,39.60
2023-02-03T00:32:02.185Z,38.50
2023-02-03T00:34:30.506Z,39.00
2023-02-03T00:36:58.195Z,37.70
2023-02-03T00:39:45.500Z,31.00
2023-02-03T00:42:13.185Z,34.50
2023-02-03T00:44:40.681Z,34.70
2023-02-03T00:47:08.453Z,34.30
2023-02-03T00:49:35.828Z,37.30
2023-02-03T00:52:03.352Z,31.50
2023-02-03T00:54:32.708Z,29.90
2023-02-03T00:59:29.886Z,33.30
2023-02-03T01:01:57.341Z,35.80
2023-02-03T01:04:24.941Z,32.90
2023-02-03T01:06:55.926Z,32.90
2023-02-03T01:09:24.163Z,32.80
2023-02-03T01:11:51.496Z,38.90
2023-02-03T01:14:19.004Z,33.50
2023-02-03T01:16:46.460Z,33.20
2023-02-03T01:19:14.405Z,34.40
2023-02-03T01:21:41.926Z,37.70
2023-02-03T01:24:09.503Z,33.30
2023-02-03T01:26:40.466Z,38.90
2023-02-03T01:29:07.995Z,37.50
2023-02-03T01:31:39.594Z,40.10
2023-02-03T01:34:12.179Z,37.60
2023-02-03T01:36:39.748Z,33.90
2023-02-03T01:39:07.502Z,38.50
2023-02-03T01:41:37.519Z,44.50
2023-02-03T01:44:43.142Z,42.90
2023-02-03T01:47:17.296Z,46.80
2023-02-03T01:49:49.463Z,41.60
2023-02-03T01:52:16.787Z,38.10
2023-02-03T02:45:31.101Z,37.20
2023-02-03T02:48:11.417Z,41.90
2023-02-03T02:50:40.923Z,48.50
2023-02-03T02:53:08.274Z,53.10
2023-02-03T02:55:38.895Z,58.00
2023-02-03T02:58:10.496Z,62.50
2023-02-03T03:00:38.657Z,50.80
2023-02-03T03:03:17.371Z,54.00
2023-02-03T03:05:56.039Z,43.00
2023-02-03T03:08:41.231Z,38.80
2023-02-03T03:11:09.495Z,36.70
2023-02-03T03:13:40.581Z,39.60
2023-02-03T03:16:09.097Z,38.00
2023-02-03T03:18:43.025Z,43.10
2023-02-03T03:21:16.214Z,33.30
2023-02-03T03:23:44.875Z,34.20
2023-02-03T03:26:14.639Z,42.20
2023-02-03T03:29:14.648Z,37.20
2023-02-03T03:31:42.249Z,38.00
2023-02-03T03:34:09.901Z,34.40
2023-02-03T03:36:44.656Z,34.30
2023-02-03T03:39:27.678Z,36.90
2023-02-03T03:42:04.747Z,32.90
2023-02-03T03:44:43.814Z,38.40
2023-02-03T03:47:28.836Z,35.30
2023-02-03T03:49:56.572Z,33.60
2023-02-03T03:52:26.460Z,33.30
2023-02-03T03:54:53.790Z,37.80
2023-02-03T03:57:58.657Z,37.10
2023-02-03T04:00:27.900Z,43.40
2023-02-03T04:02:55.563Z,38.40
2023-02-03T04:05:23.515Z,32.60
2023-02-03T04:07:50.976Z,33.40
2023-02-03T04:10:31.722Z,36.80
2023-02-03T04:12:59.319Z,44.30
2023-02-03T04:15:27.695Z,39.90
2023-02-03T04:17:56.793Z,46.00
2023-02-03T04:20:24.553Z,39.70
2023-02-03T04:22:52.381Z,40.80
2023-02-03T04:25:19.938Z,35.50
2023-02-03T04:27:47.440Z,47.60
2023-02-03T04:30:14.806Z,42.90
2023-02-03T04:32:42.129Z,38.10
2023-02-03T04:35:09.870Z,38.40
2023-02-03T04:37:38.142Z,43.30
2023-02-03T04:40:06.326Z,44.80
2023-02-03T04:42:35.974Z,54.40
2023-02-03T04:45:03.714Z,50.30
2023-02-03T04:47:31.380Z,43.80
2023-02-03T04:49:58.709Z,49.20
2023-02-03T04:52:26.099Z,37.70
2023-02-03T04:54:53.796Z,42.30
2023-02-03T04:57:21.148Z,49.80
2023-02-03T04:59:48.458Z,40.60
2023-02-03T05:02:15.931Z,35.40
2023-02-03T05:04:43.220Z,42.00
2023-02-03T05:07:11.213Z,39.00
2023-02-03T05:09:38.943Z,41.70
2023-02-03T05:12:07.462Z,37.40
2023-02-03T05:14:36.431Z,38.20
2023-02-03T05:17:03.714Z,40.50
2023-02-03T05:19:31.646Z,40.70
2023-02-03T05:21:59.012Z,43.60
2023-02-03T05:24:26.362Z,39.40
2023-02-03T05:26:53.880Z,36.30
2023-02-03T05:29:21.495Z,42.00
2023-02-03T05:31:49.200Z,37.20
2023-02-03T05:34:17.337Z,33.30
2023-02-03T05:36:44.830Z,39.30
2023-02-03T05:39:12.986Z,37.00
2023-02-03T05:41:52.979Z,38.10
2023-02-03T05:44:21.621Z,40.00
2023-02-03T05:46:49.067Z,38.10
2023-02-03T05:49:16.391Z,38.90
2023-02-03T05:51:43.806Z,36.20
2023-02-03T05:54:11.254Z,38.60
2023-02-03T05:56:38.663Z,46.10
2023-02-03T05:59:06.148Z,34.10
2023-02-03T06:01:34.226Z,35.80
2023-02-03T06:04:02.318Z,31.40
2023-02-03T06:06:33.615Z,32.70
2023-02-03T06:11:31.473Z,34.80
2023-02-03T06:13:59.798Z,30.60
2023-02-03T06:16:27.997Z,34.00
2023-02-03T06:18:59.133Z,31.30
2023-02-03T06:21:26.879Z,27.50
2023-02-03T06:23:55.668Z,27.40
2023-02-03T06:26:23.587Z,28.60
2023-02-03T06:28:50.997Z,34.60
2023-02-03T06:31:19.123Z,29.60
2023-02-03T06:33:46.569Z,32.00
2023-02-03T06:36:13.951Z,27.30
2023-02-03T06:38:41.346Z,33.90
2023-02-03T06:41:08.610Z,28.10
2023-02-03T06:43:36.684Z,28.80
2023-02-03T06:46:04.230Z,30.70
2023-02-03T06:48:31.600Z,25.10
2023-02-03T06:50:59.081Z,27.70
2023-02-03T06:53:26.432Z,26.60
2023-02-03T06:55:54.169Z,27.90
2023-02-03T06:58:22.021Z,27.20
2023-02-03T07:00:51.084Z,24.90
2023-02-03T07:03:18.794Z,23.60
2023-02-03T07:05:46.477Z,22.30
2023-02-03T07:08:13.993Z,17.90
2023-02-03T07:10:41.549Z,22.70
2023-02-03T07:13:08.953Z,24.20
2023-02-03T07:15:37.363Z,23.60
2023-02-03T07:18:05.544Z,22.00
2023-02-03T07:20:32.939Z,22.80
2023-02-03T07:23:00.615Z,22.50
2023-02-03T07:25:27.949Z,17.50
2023-02-03T07:27:55.814Z,20.10
2023-02-03T07:30:23.170Z,17.80
2023-02-03T07:32:51.293Z,14.00
2023-02-03T07:35:18.771Z,16.60
2023-02-03T07:37:46.300Z,16.50
2023-02-03T07:40:14.522Z,14.00
2023-02-03T07:42:43.205Z,14.40
2023-02-03T07:45:11.002Z,11.00
2023-02-03T07:47:38.531Z,14.40
2023-02-03T07:50:06.135Z,10.10
2023-02-03T07:52:34.355Z,11.70
2023-02-03T07:55:02.016Z,9.50
2023-02-03T07:57:30.015Z,5.10
2023-02-03T07:59:57.816Z,8.30
2023-02-03T08:02:25.107Z,6.20
2023-02-03T08:04:52.500Z,4.60
2023-02-03T08:07:20.116Z,5.00
2023-02-03T08:09:47.580Z,4.00
2023-02-03T08:12:14.906Z,4.30
2023-02-03T08:14:42.206Z,3.50
2023-02-03T08:17:09.479Z,4.80
2023-02-03T08:19:36.890Z,4.20
2023-02-03T08:22:04.200Z,3.40
2023-02-03T08:24:31.574Z,3.50
2023-02-03T08:27:00.622Z,3.70
2023-02-03T08:29:28.024Z,3.40
2023-02-03T08:31:55.925Z,3.80
2023-02-03T08:34:23.671Z,3.80
2023-02-03T08:36:51.330Z,3.60
2023-02-03T08:39:19.379Z,3.80
2023-02-03T08:41:47.447Z,4.10
2023-02-03T08:44:19.659Z,4.30
2023-02-03T08:46:51.898Z,4.70
2023-02-03T08:49:20.261Z,28.20
2023-02-03T08:51:48.280Z,23.10
2023-02-03T08:54:15.914Z,38.40
2023-02-03T08:56:43.615Z,11.10
2023-02-03T08:59:11.974Z,74.40
2023-02-03T09:01:48.246Z,16.20
2023-02-03T09:04:24.252Z,9.90
2023-02-03T09:06:54.337Z,39.70
2023-02-03T09:09:22.696Z,10.50
2023-02-03T09:11:50.647Z,7.80
2023-02-03T09:14:18.229Z,6.90
2023-02-03T09:16:46.119Z,9.70
2023-02-03T09:19:13.822Z,24.10
2023-02-03T09:21:47.789Z,13.10
2023-02-03T09:24:17.398Z,10.90
2023-02-03T09:26:45.351Z,18.30
2023-02-03T09:29:13.118Z,24.50
2023-02-03T09:31:41.709Z,10.70
2023-02-03T09:34:09.964Z,12.00
2023-02-03T09:36:37.936Z,8.50
2023-02-03T09:39:05.607Z,7.90
2023-02-03T09:42:11.428Z,9.00
2023-02-03T09:45:11.077Z,7.60
2023-02-03T09:47:40.906Z,8.30
2023-02-03T09:50:30.090Z,8.40
2023-02-03T09:52:58.734Z,10.30
2023-02-03T09:55:40.909Z,10.50
2023-02-03T09:58:14.420Z,11.40
2023-02-03T11:53:36.322Z,9.30
2023-02-03T11:56:45.115Z,13.40
2023-02-03T11:59:40.638Z,15.10
2023-02-03T12:02:40.524Z,13.30
2023-02-03T12:05:23.608Z,10.20
2023-02-03T12:08:03.078Z,8.90
2023-02-03T12:10:49.004Z,6.80
2023-02-03T12:13:24.493Z,7.30
2023-02-03T12:16:25.829Z,7.50
2023-02-03T12:19:25.418Z,7.40
2023-02-03T12:22:02.163Z,7.10
2023-02-03T12:24:42.845Z,14.30
2023-02-03T12:27:27.052Z,10.80
2023-02-03T12:29:58.020Z,8.40
2023-02-03T12:32:36.608Z,7.80
2023-02-03T12:35:22.671Z,9.00
2023-02-03T12:37:54.208Z,7.00
2023-02-03T12:40:53.284Z,5.50
2023-02-03T12:43:43.294Z,9.30
2023-02-03T12:46:13.785Z,6.70
2023-02-03T12:48:46.384Z,7.70
2023-02-03T12:51:41.370Z,6.30
2023-02-03T12:54:29.377Z,8.90
2023-02-03T12:57:00.869Z,6.40
2023-02-03T12:59:29.538Z,10.30
2023-02-03T13:02:13.610Z,4.80
2023-02-03T13:04:43.869Z,5.20
2023-02-03T13:07:36.225Z,5.90
2023-02-03T13:10:09.247Z,5.40
2023-02-03T13:12:45.926Z,6.10
2023-02-03T13:15:34.240Z,6.30
2023-02-03T13:18:27.994Z,7.50
2023-02-03T13:20:55.835Z,8.40
2023-02-03T13:23:23.909Z,7.20
2023-02-03T13:25:58.143Z,7.40
2023-02-03T13:28:54.297Z,6.80
2023-02-03T13:31:32.040Z,6.80
2023-02-03T13:34:12.094Z,6.50
2023-02-03T13:36:58.492Z,9.10
2023-02-03T13:39:34.349Z,8.20
2023-02-03T13:42:25.326Z,7.60
2023-02-03T13:45:06.303Z,6.00
2023-02-03T13:47:34.508Z,8.50
2023-02-03T13:50:05.893Z,6.40
2023-02-03T13:52:42.020Z,6.60
2023-02-03T13:55:42.230Z,8.10
2023-02-03T13:58:25.145Z,5.30
2023-02-03T14:00:53.101Z,6.50
2023-02-03T14:03:26.693Z,5.30
2023-02-03T14:05:57.640Z,6.80
2023-02-03T14:08:25.420Z,7.00
2023-02-03T14:11:31.219Z,9.90
2023-02-03T14:14:05.514Z,8.80
2023-02-03T14:16:35.494Z,8.00
2023-02-03T14:19:04.053Z,9.80
2023-02-03T14:21:52.432Z,7.60
2023-02-03T14:24:20.698Z,7.60
2023-02-03T14:26:50.399Z,7.50
2023-02-03T14:29:26.061Z,8.80
2023-02-03T14:32:00.425Z,6.90
2023-02-03T14:34:38.023Z,9.70
2023-02-03T14:37:14.534Z,7.60
2023-02-03T14:40:16.039Z,7.40
2023-02-03T14:43:16.095Z,8.10
2023-02-03T14:46:08.254Z,8.70
2023-02-03T14:49:00.762Z,8.40
2023-02-03T14:51:47.389Z,6.80
2023-02-03T14:54:43.112Z,10.30
2023-02-03T14:57:25.057Z,7.70
2023-02-03T15:00:03.253Z,6.30
2023-02-03T15:02:31.332Z,5.70
2023-02-03T15:05:14.353Z,8.40
2023-02-03T15:07:46.452Z,5.80
2023-02-03T15:10:20.846Z,8.10
2023-02-03T15:12:49.535Z,5.90
2023-02-03T15:15:29.040Z,6.20
2023-02-03T15:17:59.215Z,4.50
2023-02-03T15:20:32.868Z,4.50
2023-02-03T15:23:01.853Z,26.50
2023-02-03T15:25:30.849Z,8.90
2023-02-03T15:28:19.650Z,6.90
2023-02-03T15:30:52.829Z,6.80
2023-02-03T15:33:22.478Z,6.40
2023-02-03T15:35:55.654Z,7.00
2023-02-03T15:38:29.296Z,9.20
2023-02-03T15:40:59.418Z,10.30
2023-02-03T15:43:27.233Z,10.00
2023-02-03T15:46:08.521Z,6.30
2023-02-03T15:48:46.901Z,4.90
2023-02-03T15:51:50.207Z,6.30
2023-02-03T15:54:45.948Z,5.30
2023-02-03T15:57:20.503Z,4.80
2023-02-03T16:00:00.045Z,11.20
2023-02-03T16:02:36.035Z,7.60
2023-02-03T16:05:06.054Z,11.50
2023-02-03T16:07:34.017Z,7.40
2023-02-03T16:10:01.957Z,5.10
2023-02-03T16:12:31.527Z,10.60
2023-02-03T16:15:00.390Z,17.40
2023-02-03T16:17:29.195Z,12.10
2023-02-03T16:20:12.181Z,11.10
2023-02-03T16:22:47.576Z,11.60
2023-02-03T16:25:23.648Z,20.30
2023-02-03T16:28:36.544Z,11.50
2023-02-03T16:31:33.153Z,14.90
2023-02-03T16:34:20.547Z,14.20
2023-02-03T16:37:07.267Z,10.00
2023-02-03T16:39:54.178Z,8.50
2023-02-03T16:42:40.225Z,10.90
2023-02-03T16:45:36.063Z,7.70
2023-02-03T16:48:23.195Z,8.70
2023-02-03T16:50:53.603Z,16.00
2023-02-03T16:53:28.117Z,9.60
2023-02-03T16:55:56.870Z,10.70
2023-02-03T16:58:25.101Z,11.00
2023-02-03T17:00:53.163Z,17.70
2023-02-03T17:03:25.477Z,9.10
2023-02-03T17:05:53.114Z,11.50
2023-02-03T17:08:22.721Z,10.90
2023-02-03T17:10:50.839Z,14.30
2023-02-03T17:13:19.612Z,19.30
2023-02-03T17:15:48.639Z,12.70
2023-02-03T17:18:16.203Z,9.40
2023-02-03T17:20:44.114Z,9.30
2023-02-03T17:23:11.729Z,11.20
2023-02-03T17:25:39.458Z,11.60
2023-02-03T17:28:08.092Z,9.90
2023-02-03T17:30:36.051Z,13.70
2023-02-03T17:33:11.782Z,11.40
2023-02-03T17:35:43.299Z,10.70
2023-02-03T17:38:12.332Z,11.10
2023-02-03T17:54:37.007Z,13.10
2023-02-03T17:57:04.736Z,10.10
2023-02-03T19:27:45.701Z,16.00
2023-02-03T19:30:13.851Z,10.40
2023-02-03T19:32:42.735Z,12.00
2023-02-03T19:35:12.448Z,14.30
2023-02-03T19:37:41.674Z,17.10
2023-02-03T19:40:10.253Z,16.10
2023-02-03T19:42:38.193Z,13.70
2023-02-03T19:45:06.711Z,13.10
2023-02-03T19:47:35.014Z,15.30
2023-02-03T19:50:03.145Z,19.60
2023-02-03T19:52:31.057Z,10.30
2023-02-03T19:54:58.978Z,16.10
2023-02-03T19:57:26.601Z,9.70
2023-02-03T19:59:54.398Z,9.70
2023-02-03T20:02:22.204Z,11.80
2023-02-03T20:04:50.352Z,10.50
2023-02-03T20:07:22.930Z,7.70
2023-02-03T20:09:52.217Z,8.30
2023-02-03T20:12:19.818Z,9.60
2023-02-03T20:14:47.777Z,8.90
2023-02-03T20:17:15.556Z,9.80
2023-02-03T20:19:43.216Z,8.00
2023-02-03T20:22:10.716Z,6.20
2023-02-03T20:24:38.516Z,6.80
2023-02-03T20:27:06.419Z,5.70
2023-02-03T20:29:34.904Z,5.40
2023-02-03T20:32:04.400Z,11.40
2023-02-03T20:34:33.095Z,12.50
2023-02-03T20:37:01.072Z,6.20
2023-02-03T20:39:29.700Z,6.80
2023-02-03T20:41:57.415Z,12.40
2023-02-03T20:44:24.903Z,7.70
2023-02-03T20:46:53.011Z,8.80
2023-02-03T20:49:21.303Z,5.50
2023-02-03T20:51:48.727Z,8.10
2023-02-03T20:54:18.074Z,8.20
2023-02-03T20:56:45.415Z,9.50
2023-02-03T20:59:13.819Z,6.00
2023-02-03T21:01:41.699Z,9.70
2023-02-03T21:04:31.926Z,8.60
2023-02-03T21:06:59.359Z,6.80
2023-02-03T21:09:27.178Z,8.50
2023-02-03T21:11:54.715Z,5.90
2023-02-03T21:14:26.961Z,11.10
2023-02-03T21:16:54.623Z,6.20
2023-02-03T21:19:31.197Z,7.70
2023-02-03T21:22:12.900Z,6.40
2023-02-03T21:24:47.516Z,10.20
2023-02-03T21:27:30.787Z,6.80
2023-02-03T21:29:59.484Z,9.80
2023-02-03T21:32:40.281Z,5.90
2023-02-03T21:35:26.143Z,5.60
2023-02-03T21:37:56.819Z,4.60
2023-02-03T21:40:29.582Z,6.10
2023-02-03T21:42:58.433Z,6.40
2023-02-03T21:45:30.610Z,6.90
2023-02-03T21:47:58.346Z,8.90
2023-02-03T21:50:33.964Z,6.70
2023-02-03T21:53:07.198Z,7.70
2023-02-03T21:55:35.410Z,6.20
2023-02-03T21:58:30.035Z,5.80
2023-02-03T22:00:58.976Z,4.70
2023-02-03T22:03:35.058Z,7.60
2023-02-03T22:06:08.124Z,4.70
2023-02-03T22:08:43.106Z,6.90
2023-02-03T22:11:10.874Z,4.50
2023-02-03T22:13:40.347Z,5.30
2023-02-03T22:16:07.978Z,4.50
2023-02-03T22:18:35.354Z,6.50
2023-02-03T22:21:03.039Z,6.10
2023-02-03T22:23:30.689Z,6.60
2023-02-03T22:25:58.082Z,4.40
2023-02-03T22:28:25.739Z,5.30
2023-02-03T22:30:53.948Z,6.00
2023-02-03T22:33:21.461Z,6.20
2023-02-03T22:35:48.957Z,4.70
2023-02-03T22:38:16.660Z,5.00
2023-02-03T22:40:44.521Z,4.80
2023-02-03T22:43:12.367Z,4.50
2023-02-03T22:45:40.528Z,6.00
2023-02-03T22:48:07.941Z,4.20
2023-02-03T22:50:37.127Z,4.50
2023-02-03T22:53:05.702Z,5.40
2023-02-03T22:55:37.698Z,5.80
2023-02-03T22:58:05.604Z,4.40
2023-02-03T23:00:33.414Z,5.20
2023-02-03T23:03:00.953Z,7.20
2023-02-03T23:05:28.358Z,5.10
2023-02-03T23:07:56.489Z,8.20
2023-02-03T23:10:25.351Z,6.00
2023-02-03T23:12:54.159Z,6.00
2023-02-03T23:15:21.634Z,5.70
2023-02-03T23:17:49.402Z,4.60
2023-02-03T23:20:18.298Z,7.30
2023-02-03T23:22:46.655Z,5.20
2023-02-03T23:25:14.177Z,6.00
2023-02-03T23:27:41.654Z,6.10
2023-02-03T23:30:09.973Z,6.50
2023-02-03T23:32:37.871Z,4.40
2023-02-03T23:35:24.876Z,4.80
2023-02-03T23:37:52.389Z,4.90
2023-02-03T23:40:20.082Z,5.20
2023-02-03T23:42:47.595Z,4.50
2023-02-03T23:45:16.040Z,5.00
2023-02-03T23:47:44.482Z,6.80
2023-02-03T23:50:14.016Z,5.90
2023-02-03T23:52:41.925Z,7.90
2023-02-03T23:55:11.555Z,7.40
2023-02-03T23:57:42.243Z,6.60
